createdAt,value
2018-12-03T00:01:32.204Z,21.00
2018-12-03T00:04:33.040Z,17.00
2018-12-03T00:07:02.321Z,19.65
2018-12-03T00:09:31.892Z,15.10
2018-12-03T00:12:00.769Z,16.57
2018-12-03T00:14:29.739Z,22.60
2018-12-03T00:16:58.666Z,21.30
2018-12-03T00:19:27.918Z,19.27
2018-12-03T00:21:57.204Z,17.00
2018-12-03T00:24:26.113Z,22.82
2018-12-03T00:26:55.042Z,23.00
2018-12-03T00:29:23.995Z,22.55
2018-12-03T00:31:52.888Z,17.67
2018-12-03T00:34:21.773Z,17.75
2018-12-03T00:36:50.865Z,21.27
2018-12-03T00:39:19.790Z,23.18
2018-12-03T00:41:49.055Z,24.55
2018-12-03T00:44:18.152Z,18.77
2018-12-03T00:46:47.046Z,28.47
2018-12-03T00:49:16.387Z,22.95
2018-12-03T00:51:45.366Z,17.82
2018-12-03T00:54:14.261Z,17.87
2018-12-03T00:56:43.154Z,25.65
2018-12-03T00:59:12.142Z,23.12
2018-12-03T01:01:41.050Z,23.55
2018-12-03T01:04:09.952Z,28.75
2018-12-03T01:06:38.906Z,24.60
2018-12-03T01:09:08.774Z,13.90
2018-12-03T01:11:38.083Z,26.52
2018-12-03T01:14:07.167Z,23.20
2018-12-03T01:16:36.099Z,18.92
2018-12-03T01:19:05.279Z,19.70
2018-12-03T01:21:34.267Z,25.88
2018-12-03T01:24:03.182Z,21.68
2018-12-03T01:26:32.077Z,26.65
2018-12-03T01:29:01.050Z,27.52
2018-12-03T01:31:29.942Z,19.42
2018-12-03T01:33:58.832Z,21.23
2018-12-03T01:36:27.859Z,19.98
2018-12-03T01:38:57.114Z,24.32
2018-12-03T01:41:26.288Z,19.25
2018-12-03T01:43:55.484Z,19.55
2018-12-03T01:46:24.704Z,23.00
2018-12-03T01:48:54.014Z,20.57
2018-12-03T01:51:23.613Z,15.80
2018-12-03T01:53:52.688Z,22.90
2018-12-03T01:56:21.618Z,24.07
2018-12-03T01:58:50.593Z,14.28
2018-12-03T02:01:19.502Z,13.78
2018-12-03T02:03:48.411Z,24.63
2018-12-03T02:06:17.422Z,24.90
2018-12-03T02:08:46.314Z,18.17
2018-12-03T02:11:15.246Z,22.77
2018-12-03T02:13:44.219Z,24.65
2018-12-03T02:16:13.174Z,25.17
2018-12-03T02:18:42.097Z,18.82
2018-12-03T02:21:11.072Z,24.60
2018-12-03T02:23:39.972Z,19.95
2018-12-03T02:26:08.848Z,22.70
2018-12-03T02:28:37.797Z,22.32
2018-12-03T02:31:06.703Z,21.30
2018-12-03T02:33:35.604Z,12.18
2018-12-03T02:36:04.589Z,19.98
2018-12-03T02:38:33.505Z,26.37
2018-12-03T02:41:02.392Z,20.02
2018-12-03T02:43:31.394Z,17.90
2018-12-03T02:46:00.274Z,16.87
2018-12-03T02:48:29.176Z,23.77
2018-12-03T02:50:58.140Z,20.57
2018-12-03T02:53:27.395Z,20.45
2018-12-03T02:55:56.290Z,23.73
2018-12-03T02:58:25.285Z,17.55
2018-12-03T03:00:54.377Z,19.40
2018-12-03T03:03:23.678Z,21.23
2018-12-03T03:05:54.083Z,21.65
2018-12-03T03:08:23.282Z,22.13
2018-12-03T03:10:52.483Z,21.45
2018-12-03T03:13:21.642Z,20.68
2018-12-03T03:15:50.869Z,19.98
2018-12-03T03:18:20.090Z,23.90
2018-12-03T03:20:49.231Z,22.85
2018-12-03T03:23:18.115Z,24.72
2018-12-03T03:25:46.994Z,16.85
2018-12-03T03:28:16.025Z,21.23
2018-12-03T03:30:44.918Z,24.52
2018-12-03T03:33:13.842Z,23.73
2018-12-03T03:35:42.811Z,22.70
2018-12-03T03:38:11.723Z,19.87
2018-12-03T03:40:40.658Z,27.15
2018-12-03T03:43:09.615Z,24.00
2018-12-03T03:45:38.700Z,18.00
2018-12-03T03:48:07.823Z,13.45
2018-12-03T03:50:37.071Z,22.17
2018-12-03T03:53:06.269Z,19.15
2018-12-03T03:55:35.722Z,20.92
2018-12-03T03:58:04.936Z,26.00
2018-12-03T04:00:34.071Z,18.85
2018-12-03T04:03:03.167Z,17.90
2018-12-03T04:05:32.249Z,25.50
2018-12-03T04:08:01.219Z,20.23
2018-12-03T04:10:30.469Z,20.25
2018-12-03T04:12:59.640Z,17.12
2018-12-03T04:15:28.545Z,25.45
2018-12-03T04:17:57.532Z,19.37
2018-12-03T04:20:26.547Z,24.27
2018-12-03T04:22:55.870Z,18.30
2018-12-03T04:25:25.261Z,21.52
2018-12-03T04:27:54.379Z,18.30
2018-12-03T04:30:23.537Z,15.83
2018-12-03T04:32:52.979Z,21.40
2018-12-03T04:35:22.239Z,27.87
2018-12-03T04:37:51.229Z,23.40
2018-12-03T04:40:20.140Z,16.97
2018-12-03T04:42:49.122Z,18.17
2018-12-03T04:45:18.679Z,21.27
2018-12-03T04:47:48.378Z,12.00
2018-12-03T04:50:19.777Z,20.37
2018-12-03T04:52:48.693Z,24.07
2018-12-03T04:55:18.187Z,25.90
2018-12-03T04:57:47.578Z,19.92
2018-12-03T05:00:18.281Z,27.22
2018-12-03T05:02:47.916Z,20.85
2018-12-03T05:05:16.802Z,22.30
2018-12-03T05:07:45.718Z,25.80
2018-12-03T05:10:17.361Z,21.87
2018-12-03T05:12:46.902Z,26.80
2018-12-03T05:15:15.904Z,24.43
2018-12-03T05:17:45.059Z,23.42
2018-12-03T05:20:16.634Z,26.45
2018-12-03T05:22:45.636Z,27.87
2018-12-03T05:32:55.327Z,23.87
2018-12-03T05:35:27.933Z,22.30
2018-12-03T05:37:56.906Z,26.62
2018-12-03T05:40:26.770Z,32.80
2018-12-03T05:42:55.756Z,34.65
2018-12-03T05:45:24.934Z,22.67
2018-12-03T05:47:54.169Z,26.52
2018-12-03T05:50:23.275Z,20.10
2018-12-03T05:52:52.263Z,18.00
2018-12-03T05:55:21.397Z,18.12
2018-12-03T05:57:50.425Z,20.32
2018-12-03T06:00:23.846Z,23.60
2018-12-03T06:02:55.698Z,34.20
2018-12-03T06:05:24.768Z,36.68
2018-12-03T06:07:53.738Z,27.37
2018-12-03T06:10:25.723Z,39.63
2018-12-03T06:12:54.760Z,19.07
2018-12-03T06:15:23.722Z,22.48
2018-12-03T06:17:53.360Z,21.50
2018-12-03T06:20:22.779Z,20.62
2018-12-03T06:22:52.414Z,25.45
2018-12-03T06:25:23.320Z,26.95
2018-12-03T06:27:52.490Z,25.82
2018-12-03T06:30:22.559Z,33.90
2018-12-03T06:32:52.888Z,28.00
2018-12-03T06:35:22.338Z,27.48
2018-12-03T06:37:51.499Z,22.98
2018-12-03T06:40:21.248Z,22.50
2018-12-03T06:42:50.861Z,21.62
2018-12-03T06:45:20.432Z,22.37
2018-12-03T06:47:53.355Z,23.92
2018-12-03T06:50:22.451Z,25.70
2018-12-03T06:52:51.521Z,22.55
2018-12-03T06:55:20.718Z,32.45
2018-12-03T06:57:49.982Z,24.15
2018-12-03T07:00:20.923Z,24.25
2018-12-03T07:02:50.184Z,22.85
2018-12-03T07:05:19.315Z,19.92
2018-12-03T07:07:48.854Z,30.43
2018-12-03T07:10:18.607Z,20.40
2018-12-03T07:12:48.305Z,23.35
2018-12-03T07:15:18.330Z,20.95
2018-12-03T07:17:47.507Z,28.55
2018-12-03T07:20:16.918Z,28.02
2018-12-03T07:22:45.998Z,25.57
2018-12-03T07:25:15.252Z,29.35
2018-12-03T07:27:44.318Z,28.38
2018-12-03T07:30:14.528Z,37.10
2018-12-03T07:32:44.067Z,31.02
2018-12-03T07:35:13.217Z,23.57
2018-12-03T07:37:42.236Z,30.68
2018-12-03T07:40:13.994Z,25.48
2018-12-03T07:46:30.597Z,34.50
2018-12-03T07:48:59.694Z,18.57
2018-12-03T07:51:28.663Z,23.32
2018-12-03T07:53:57.730Z,23.12
2018-12-03T07:56:26.775Z,31.05
2018-12-03T07:58:56.337Z,27.93
2018-12-03T08:01:25.460Z,32.90
2018-12-03T08:03:54.350Z,24.02
2018-12-03T08:06:23.575Z,18.37
2018-12-03T08:08:52.600Z,31.62
2018-12-03T08:11:21.499Z,27.27
2018-12-03T08:13:50.390Z,24.12
2018-12-03T08:16:19.362Z,25.37
2018-12-03T08:18:48.282Z,25.30
2018-12-03T08:21:17.247Z,27.67
2018-12-03T08:23:47.606Z,40.30
2018-12-03T08:26:16.554Z,34.00
2018-12-03T08:28:45.483Z,23.20
2018-12-03T08:31:14.473Z,19.40
2018-12-03T08:33:43.383Z,38.65
2018-12-03T08:36:12.339Z,28.07
2018-12-03T08:38:41.610Z,39.58
2018-12-03T08:41:10.564Z,28.17
2018-12-03T08:43:40.033Z,20.88
2018-12-03T08:46:10.842Z,41.88
2018-12-03T08:48:40.282Z,25.05
2018-12-03T08:51:09.407Z,34.33
2018-12-03T08:53:38.418Z,26.02
2018-12-03T08:56:07.567Z,28.05
2018-12-03T08:58:36.555Z,26.33
2018-12-03T09:01:09.448Z,31.95
2018-12-03T09:03:38.485Z,42.40
2018-12-03T09:06:09.390Z,25.17
2018-12-03T09:08:38.355Z,31.75
2018-12-03T09:11:08.428Z,28.92
2018-12-03T09:13:37.510Z,37.83
2018-12-03T09:16:06.558Z,23.83
2018-12-03T09:18:37.076Z,18.52
2018-12-03T09:21:22.283Z,29.92
2018-12-03T09:23:53.315Z,29.07
2018-12-03T09:26:22.242Z,16.70
2018-12-03T09:28:51.325Z,31.55
2018-12-03T09:31:21.165Z,23.95
2018-12-03T09:33:52.362Z,30.20
2018-12-03T09:36:21.690Z,30.55
2018-12-03T09:38:57.946Z,27.80
2018-12-03T09:41:27.925Z,30.80
2018-12-03T09:43:57.220Z,17.82
2018-12-03T09:46:26.145Z,24.23
2018-12-03T09:48:56.103Z,27.95
2018-12-03T09:51:29.227Z,33.53
2018-12-03T09:53:58.572Z,31.00
2018-12-03T09:56:29.815Z,39.03
2018-12-03T09:58:58.780Z,26.80
2018-12-03T10:01:27.730Z,33.95
2018-12-03T10:03:56.719Z,37.85
2018-12-03T10:06:25.775Z,31.97
2018-12-03T10:08:54.735Z,29.65
2018-12-03T10:11:23.657Z,32.55
2018-12-03T10:13:52.802Z,31.07
2018-12-03T10:16:21.674Z,37.93
2018-12-03T10:18:50.629Z,33.67
2018-12-03T10:21:20.098Z,52.43
2018-12-03T10:23:49.237Z,35.08
2018-12-03T10:26:18.234Z,36.00
2018-12-03T10:28:47.227Z,25.45
2018-12-03T10:31:16.223Z,19.82
2018-12-03T10:33:45.238Z,27.20
2018-12-03T10:36:14.288Z,31.93
2018-12-03T10:38:44.346Z,24.70
2018-12-03T10:41:20.561Z,27.13
2018-12-03T10:43:49.540Z,35.90
2018-12-03T10:46:18.960Z,28.57
2018-12-03T10:48:48.009Z,40.48
2018-12-03T10:51:17.853Z,27.95
2018-12-03T10:53:46.847Z,38.20
2018-12-03T10:56:17.326Z,32.98
2018-12-03T10:58:47.055Z,31.77
2018-12-03T11:01:22.897Z,36.38
2018-12-03T11:04:00.284Z,46.63
2018-12-03T11:06:29.676Z,35.88
2018-12-03T11:08:58.647Z,26.57
2018-12-03T11:11:27.746Z,26.95
2018-12-03T11:14:04.454Z,33.67
2018-12-03T11:16:35.446Z,25.27
2018-12-03T11:19:04.572Z,38.38
2018-12-03T11:21:33.647Z,28.38
2018-12-03T11:24:02.617Z,29.37
2018-12-03T11:26:34.626Z,31.12
2018-12-03T11:29:03.878Z,23.40
2018-12-03T11:31:33.598Z,33.95
2018-12-03T11:34:02.579Z,30.30
2018-12-03T11:36:39.157Z,29.37
2018-12-03T11:39:21.813Z,20.02
2018-12-03T11:41:54.538Z,31.65
2018-12-03T11:44:23.554Z,27.50
2018-12-03T11:46:52.868Z,26.97
2018-12-03T11:49:22.218Z,24.07
2018-12-03T11:51:51.207Z,25.92
2018-12-03T11:54:20.171Z,29.65
2018-12-03T11:56:49.161Z,20.23
2018-12-03T11:59:18.161Z,17.70
2018-12-03T12:01:47.115Z,28.95
2018-12-03T12:04:16.096Z,27.82
2018-12-03T12:06:45.117Z,24.43
2018-12-03T12:09:14.080Z,24.82
2018-12-03T12:11:43.090Z,15.88
2018-12-03T12:14:24.444Z,23.98
2018-12-03T12:16:53.431Z,28.95
2018-12-03T12:19:22.422Z,21.27
2018-12-03T12:21:52.903Z,36.53
2018-12-03T12:24:21.888Z,24.63
2018-12-03T12:33:54.942Z,30.25
2018-12-03T12:36:24.171Z,23.80
2018-12-03T12:38:53.141Z,21.80
2018-12-03T12:41:22.308Z,25.08
2018-12-03T12:43:51.204Z,20.15
2018-12-03T12:46:21.746Z,33.95
2018-12-03T12:48:51.767Z,37.73
2018-12-03T12:51:20.793Z,21.30
2018-12-03T12:53:49.804Z,28.47
2018-12-03T12:56:18.822Z,26.93
2018-12-03T12:58:47.983Z,29.30
2018-12-03T13:01:17.050Z,23.75
2018-12-03T13:03:47.821Z,16.60
2018-12-03T13:06:17.683Z,24.67
2018-12-03T13:08:46.656Z,21.10
2018-12-03T13:11:15.726Z,25.75
2018-12-03T13:13:44.843Z,28.40
2018-12-03T13:16:14.074Z,22.77
2018-12-03T13:18:43.407Z,26.93
2018-12-03T13:21:12.872Z,27.52
2018-12-03T13:23:42.334Z,31.40
2018-12-03T13:26:11.406Z,38.78
2018-12-03T13:28:40.447Z,25.43
2018-12-03T13:31:09.586Z,17.67
2018-12-03T13:33:38.512Z,37.20
2018-12-03T13:36:08.732Z,26.73
2018-12-03T13:38:37.755Z,27.87
2018-12-03T13:41:06.908Z,27.45
2018-12-03T13:43:36.037Z,31.75
2018-12-03T13:46:05.378Z,24.77
2018-12-03T13:48:34.433Z,27.82
2018-12-03T13:51:04.353Z,30.25
2018-12-03T13:53:33.465Z,30.95
2018-12-03T13:56:02.458Z,22.15
2018-12-03T13:58:31.513Z,23.83
2018-12-03T14:01:00.414Z,22.98
2018-12-03T14:03:30.405Z,31.00
2018-12-03T14:06:05.059Z,26.80
2018-12-03T14:08:41.699Z,21.70
2018-12-03T14:11:14.317Z,28.50
2018-12-03T14:13:52.672Z,34.73
2018-12-03T14:16:55.693Z,33.50
2018-12-03T14:19:26.005Z,28.05
2018-12-03T14:22:28.065Z,40.98
2018-12-03T14:24:57.113Z,30.52
2018-12-03T14:27:26.063Z,30.35
2018-12-03T14:29:55.150Z,37.80
2018-12-03T14:32:24.140Z,39.73
2018-12-03T14:41:56.811Z,35.73
2018-12-03T14:44:25.983Z,36.73
2018-12-03T14:46:55.015Z,35.68
2018-12-03T14:49:24.070Z,35.28
2018-12-03T14:51:53.419Z,39.42
2018-12-03T14:54:23.451Z,40.12
2018-12-03T14:56:52.450Z,51.20
2018-12-03T14:59:22.498Z,34.20
2018-12-03T15:01:51.689Z,46.73
2018-12-03T15:04:20.763Z,44.95
2018-12-03T15:06:49.799Z,53.78
2018-12-03T15:09:18.858Z,50.75
2018-12-03T15:11:48.146Z,43.68
2018-12-03T15:14:17.216Z,66.50
2018-12-03T15:16:46.341Z,57.17
2018-12-03T15:19:15.277Z,48.10
2018-12-03T15:21:44.260Z,85.77
2018-12-03T15:24:13.523Z,69.47
2018-12-03T15:26:42.681Z,86.95
2018-12-03T15:29:11.727Z,93.80
2018-12-03T15:31:40.688Z,99.62
2018-12-03T15:34:10.668Z,85.32
2018-12-03T15:36:39.692Z,84.83
2018-12-03T15:39:09.741Z,102.70
2018-12-03T15:41:38.699Z,101.55
2018-12-03T15:44:07.650Z,100.40
2018-12-03T15:46:36.654Z,92.35
2018-12-03T15:49:05.660Z,86.30
2018-12-03T15:51:34.571Z,112.10
2018-12-03T15:54:04.232Z,94.55
2018-12-03T15:56:33.162Z,110.35
2018-12-03T15:59:02.055Z,68.22
2018-12-03T16:01:31.613Z,109.97
2018-12-03T16:04:00.511Z,90.60
2018-12-03T16:06:29.413Z,100.30
2018-12-03T16:08:58.412Z,96.00
2018-12-03T16:11:27.373Z,89.62
2018-12-03T16:13:56.280Z,88.75
2018-12-03T16:16:25.286Z,81.15
2018-12-03T16:18:54.345Z,82.47
2018-12-03T16:21:23.214Z,74.55
2018-12-03T16:23:53.218Z,81.63
2018-12-03T16:26:22.091Z,70.32
2018-12-03T16:28:51.026Z,55.25
2018-12-03T16:31:20.047Z,82.75
2018-12-03T16:33:48.919Z,65.32
2018-12-03T16:36:18.341Z,71.50
2018-12-03T16:38:47.319Z,91.67
2018-12-03T16:41:16.559Z,74.62
2018-12-03T16:43:45.684Z,84.72
2018-12-03T16:46:14.664Z,85.05
2018-12-03T16:48:43.631Z,83.45
2018-12-03T16:51:12.576Z,79.35
2018-12-03T16:53:41.714Z,94.47
2018-12-03T16:56:11.059Z,81.47
2018-12-03T16:58:39.971Z,74.67
2018-12-03T17:01:08.966Z,55.95
2018-12-03T17:03:37.940Z,82.10
2018-12-03T17:06:06.961Z,94.45
2018-12-03T17:08:35.995Z,63.10
2018-12-03T17:11:04.883Z,58.70
2018-12-03T17:13:33.922Z,77.03
2018-12-03T17:16:03.018Z,97.27
2018-12-03T17:18:32.044Z,64.22
2018-12-03T17:21:08.743Z,64.85
2018-12-03T17:24:12.365Z,68.07
2018-12-03T17:26:41.839Z,76.47
2018-12-03T17:29:10.854Z,92.42
2018-12-03T17:31:39.954Z,79.62
2018-12-03T17:34:09.048Z,75.35
2018-12-03T17:36:38.210Z,89.72
2018-12-03T17:39:07.918Z,84.97
2018-12-03T17:41:37.055Z,101.60
2018-12-03T17:44:06.345Z,82.00
2018-12-03T17:46:35.291Z,78.35
2018-12-03T17:49:04.322Z,120.47
2018-12-03T17:51:33.291Z,90.45
2018-12-03T17:54:02.242Z,94.00
2018-12-03T17:56:31.610Z,99.75
2018-12-03T17:59:00.518Z,90.22
2018-12-03T18:01:29.554Z,116.05
2018-12-03T18:03:58.581Z,99.62
2018-12-03T18:06:27.547Z,93.05
2018-12-03T18:08:56.518Z,93.97
2018-12-03T18:11:25.590Z,104.40
2018-12-03T18:13:54.582Z,97.15
2018-12-03T18:16:23.511Z,95.40
2018-12-03T18:18:52.653Z,97.82
2018-12-03T18:21:22.562Z,105.43
2018-12-03T18:23:57.734Z,80.85
2018-12-03T18:26:33.362Z,100.18
2018-12-03T18:29:02.451Z,107.37
2018-12-03T18:31:31.374Z,93.12
2018-12-03T18:34:00.262Z,106.32
2018-12-03T18:36:29.230Z,91.72
2018-12-03T18:38:58.134Z,90.25
2018-12-03T18:41:27.037Z,84.15
2018-12-03T18:43:56.103Z,70.72
2018-12-03T18:46:25.039Z,85.95
2018-12-03T18:48:56.846Z,103.72
2018-12-03T18:51:26.788Z,85.67
2018-12-03T18:53:55.745Z,81.95
2018-12-03T18:56:24.805Z,103.22
2018-12-03T18:59:02.634Z,90.10
2018-12-03T19:01:31.671Z,104.95
2018-12-03T19:04:02.297Z,83.45
2018-12-03T19:06:31.650Z,99.97
2018-12-03T19:09:00.656Z,87.20
2018-12-03T19:11:29.533Z,84.62
2018-12-03T19:13:58.786Z,82.08
2018-12-03T19:16:27.699Z,101.00
2018-12-03T19:18:56.583Z,99.03
2018-12-03T19:21:25.555Z,83.52
2018-12-03T19:23:54.554Z,76.85
2018-12-03T19:26:23.490Z,70.08
2018-12-03T19:28:52.482Z,81.82
2018-12-03T19:31:21.374Z,94.03
2018-12-03T19:33:50.279Z,71.90
2018-12-03T19:36:19.274Z,74.20
2018-12-03T19:38:48.908Z,88.20
2018-12-03T19:41:17.947Z,85.62
2018-12-03T19:43:46.948Z,95.90
2018-12-03T19:46:15.907Z,68.42
2018-12-03T19:48:44.818Z,77.47
2018-12-03T19:51:13.812Z,89.30
2018-12-03T19:53:42.702Z,79.17
2018-12-03T19:56:12.423Z,94.00
2018-12-03T19:58:42.647Z,87.17
2018-12-03T20:01:11.956Z,76.05
2018-12-03T20:03:40.889Z,98.15
2018-12-03T20:06:09.939Z,86.87
2018-12-03T20:08:38.999Z,77.90
2018-12-03T20:11:08.338Z,82.50
2018-12-03T20:13:37.332Z,83.50
2018-12-03T20:16:06.271Z,84.72
2018-12-03T20:18:35.226Z,77.82
2018-12-03T20:21:10.400Z,87.53
2018-12-03T20:24:10.864Z,64.95
2018-12-03T20:26:48.227Z,87.70
2018-12-03T20:29:25.401Z,75.52
2018-12-03T20:32:10.831Z,68.60
2018-12-03T20:34:42.501Z,91.70
2018-12-03T20:37:19.711Z,62.00
2018-12-03T20:40:07.651Z,75.83
2018-12-03T20:42:37.962Z,64.72
2018-12-03T20:45:11.163Z,70.78
2018-12-03T20:47:41.114Z,81.22
2018-12-03T20:50:15.887Z,80.10
2018-12-03T20:55:19.536Z,96.63
2018-12-03T20:57:43.153Z,71.72
2018-12-03T20:57:49.546Z,72.35
2018-12-03T21:00:18.746Z,80.57
2018-12-03T21:02:48.587Z,67.30
2018-12-03T21:05:17.533Z,81.85
2018-12-03T21:07:46.430Z,83.07
2018-12-03T21:10:15.409Z,78.28
2018-12-03T21:12:44.363Z,99.10
2018-12-03T21:15:13.263Z,85.28
2018-12-03T21:17:42.132Z,85.80
2018-12-03T21:20:13.820Z,69.47
2018-12-03T21:22:42.682Z,93.25
2018-12-03T21:25:11.636Z,67.62
2018-12-03T21:27:40.612Z,89.00
2018-12-03T21:30:10.370Z,101.55
2018-12-03T21:32:39.274Z,83.87
2018-12-03T21:35:08.294Z,83.90
2018-12-03T21:37:37.187Z,82.45
2018-12-03T21:40:07.012Z,75.15
2018-12-03T21:42:36.043Z,71.70
2018-12-03T21:45:05.460Z,101.02
2018-12-03T21:47:34.338Z,74.27
2018-12-03T21:50:05.879Z,90.17
2018-12-03T21:52:34.289Z,94.83
2018-12-03T21:55:03.252Z,101.20
2018-12-03T21:57:32.212Z,92.27
2018-12-03T22:00:01.130Z,92.62
2018-12-03T22:02:30.136Z,117.40
2018-12-03T22:05:00.534Z,124.75
2018-12-03T22:07:29.416Z,101.92
2018-12-03T22:09:58.401Z,121.45
2018-12-03T22:12:27.346Z,155.80
2018-12-03T22:14:56.227Z,133.95
2018-12-03T22:17:26.307Z,147.68
2018-12-03T22:19:55.175Z,127.12
2018-12-03T22:22:24.048Z,129.57
2018-12-03T22:24:53.036Z,144.50
2018-12-03T22:27:21.991Z,163.18
2018-12-03T22:29:50.889Z,175.62
2018-12-03T22:32:19.862Z,170.82
2018-12-03T22:34:48.737Z,142.15
2018-12-03T22:37:17.649Z,163.70
2018-12-03T22:39:46.700Z,177.02
2018-12-03T22:42:15.804Z,157.45
2018-12-03T22:44:44.731Z,139.85
2018-12-03T22:47:13.687Z,147.50
2018-12-03T22:49:42.551Z,129.60
2018-12-03T22:52:11.430Z,162.50
2018-12-03T22:54:40.451Z,176.05
2018-12-03T22:57:09.419Z,171.72
2018-12-03T22:59:38.383Z,165.60
2018-12-03T23:02:07.514Z,149.42
2018-12-03T23:04:48.159Z,160.70
2018-12-03T23:07:17.481Z,141.03
2018-12-03T23:09:46.374Z,164.22
2018-12-03T23:12:15.262Z,162.30
2018-12-03T23:14:44.198Z,168.50
2018-12-03T23:17:13.098Z,174.53
2018-12-03T23:19:41.987Z,150.47
2018-12-03T23:22:10.950Z,180.80
2018-12-03T23:24:39.839Z,144.20
2018-12-03T23:27:08.778Z,173.60
2018-12-03T23:29:37.862Z,165.52
2018-12-03T23:32:06.754Z,160.03
2018-12-03T23:34:35.642Z,186.18
2018-12-03T23:37:04.672Z,152.53
2018-12-03T23:39:35.520Z,176.22
2018-12-03T23:42:04.476Z,153.97
2018-12-03T23:44:33.362Z,142.05
2018-12-03T23:47:02.289Z,145.97
2018-12-03T23:49:31.235Z,137.75
2018-12-03T23:52:00.118Z,128.62
2018-12-03T23:54:29.015Z,145.38
2018-12-03T23:56:58.028Z,116.22
2018-12-03T23:59:26.970Z,138.50
